Time;durP1;ratioP1;P1;durP2;ratioP2;P2;SDS_P1;SDS_P2;PMS_P1;PMS_P2;Temp;Humidity;BMP_temperature;BMP_pressure;BME280_temperature;BME280_humidity;BME280_pressure;Samples;Min_cycle;Max_cycle;Signal;HPM_P1;HPM_P2
2024/01/11 00:08:15;;;;;;;5.65;4.00;;;;;;;19.27;45.12;97949.75;20904062;28;20045;-55
2024/01/11 00:18:34;;;;;;;4.63;4.10;;;;;;;19.20;44.99;97941.22;20900901;28;20049;-55
2024/01/11 00:28:54;;;;;;;4.20;3.80;;;;;;;19.19;44.80;97940.41;20927404;28;20554;-55
2024/01/11 00:39:13;;;;;;;6.78;3.92;;;;;;;19.15;44.70;97948.28;20928211;28;20044;-55
2024/01/11 00:49:33;;;;;;;4.95;3.83;;;;;;;19.12;44.70;97934.56;20847601;28;20049;-55
2024/01/11 00:59:52;;;;;;;5.07;3.88;;;;;;;19.01;44.55;97923.09;20885144;28;20057;-55
2024/01/11 01:10:12;;;;;;;5.18;3.75;;;;;;;18.98;44.58;97912.91;20916734;28;20045;-58
2024/01/11 01:20:31;;;;;;;3.95;3.55;;;;;;;18.93;44.73;97915.66;20914852;28;20049;-58
2024/01/11 01:30:51;;;;;;;4.47;3.60;;;;;;;18.87;44.55;97912.25;20914633;28;20394;-58
2024/01/11 01:41:10;;;;;;;3.45;3.15;;;;;;;18.81;44.51;97908.00;20913729;28;20076;-58
2024/01/11 01:51:31;;;;;;;4.93;3.40;;;;;;;18.75;44.41;97901.84;20913137;28;20049;-58
2024/01/11 02:01:51;;;;;;;4.60;3.47;;;;;;;18.72;44.45;97905.16;20910514;28;20049;-58
2024/01/11 02:12:12;;;;;;;4.28;3.40;;;;;;;18.66;44.34;97900.91;20911429;28;20100;-56
2024/01/11 02:22:39;;;;;;;4.13;3.72;;;;;;;18.62;44.42;97886.41;20909810;28;20056;-54
2024/01/11 02:32:59;;;;;;;3.90;3.45;;;;;;;18.59;44.30;97884.28;20908656;28;20060;-55
2024/01/11 02:43:18;;;;;;;3.95;3.30;;;;;;;18.53;44.17;97871.94;20908245;28;20402;-55
2024/01/11 02:53:37;;;;;;;4.03;3.63;;;;;;;18.40;44.20;97864.56;20908758;28;20064;-54
2024/01/11 03:03:57;;;;;;;3.92;3.55;;;;;;;18.37;44.07;97860.56;20905323;28;20525;-55
2024/01/11 03:14:17;;;;;;;4.70;3.60;;;;;;;18.34;44.14;97867.31;20897464;28;20044;-54
2024/01/11 03:24:39;;;;;;;4.93;4.22;;;;;;;18.27;44.13;97871.47;20932021;28;20048;-55
2024/01/11 03:34:59;;;;;;;4.40;3.80;;;;;;;18.23;44.17;97870.44;20903494;28;20041;-55
2024/01/11 03:45:21;;;;;;;4.50;3.67;;;;;;;18.16;43.97;97854.63;20926611;28;20053;-55
2024/01/11 03:55:41;;;;;;;4.00;3.60;;;;;;;18.11;44.13;97851.97;20903649;28;20056;-55
2024/01/11 04:06:01;;;;;;;4.78;3.90;;;;;;;18.08;44.19;97872.25;20902861;28;20453;-54
2024/01/11 04:16:20;;;;;;;4.97;3.80;;;;;;;18.05;43.97;97880.09;20918208;28;20048;-54
2024/01/11 04:26:40;;;;;;;6.30;4.00;;;;;;;17.98;43.97;97872.38;20901545;28;20049;-55
2024/01/11 04:36:59;;;;;;;4.22;3.83;;;;;;;17.94;43.89;97879.44;20901072;28;20049;-58
2024/01/11 04:47:19;;;;;;;4.13;3.72;;;;;;;17.93;43.65;97878.59;20909100;28;20056;-58
2024/01/11 04:57:39;;;;;;;4.65;3.92;;;;;;;17.85;43.89;97900.81;20901283;28;20060;-58
2024/01/11 05:07:58;;;;;;;4.43;4.03;;;;;;;17.79;43.96;97873.06;20870181;28;20049;-58
2024/01/11 05:18:18;;;;;;;4.30;3.90;;;;;;;17.79;44.05;97873.06;20964046;28;20032;-58
2024/01/11 05:28:38;;;;;;;4.55;3.85;;;;;;;17.88;45.31;97870.59;20927938;28;20072;-57
2024/01/11 05:38:58;;;;;;;5.07;4.40;;;;;;;17.97;45.59;97868.88;20905140;28;20131;-58
2024/01/11 05:49:17;;;;;;;17.95;5.70;;;;;;;18.05;45.95;97880.09;20915873;28;20059;-59
2024/01/11 05:59:36;;;;;;;5.50;3.67;;;;;;;18.10;46.08;97878.16;20924766;28;20056;-58
2024/01/11 06:09:56;;;;;;;10.15;5.82;;;;;;;18.09;45.40;97894.63;20910427;28;20049;-56
2024/01/11 06:20:16;;;;;;;14.40;7.50;;;;;;;18.16;44.39;97905.88;20937773;28;20073;-56
2024/01/11 06:30:36;;;;;;;16.60;8.07;;;;;;;18.25;44.51;97877.16;20894544;28;20056;-56
2024/01/11 06:40:55;;;;;;;15.93;8.82;;;;;;;18.40;44.00;97900.44;20910476;28;20080;-56
2024/01/11 06:51:15;;;;;;;16.02;8.13;;;;;;;18.51;43.90;97899.22;20908245;28;20367;-57
2024/01/11 07:01:35;;;;;;;18.70;9.02;;;;;;;18.65;43.68;97899.31;20907067;28;20053;-56
2024/01/11 07:11:54;;;;;;;16.67;8.57;;;;;;;18.75;43.63;97892.97;20905881;28;20052;-56
2024/01/11 07:22:14;;;;;;;17.40;9.10;;;;;;;18.83;43.16;97899.63;20906566;28;20417;-57
2024/01/11 07:32:33;;;;;;;13.35;8.25;;;;;;;18.93;43.27;97862.50;20922714;28;20044;-56
2024/01/11 07:42:53;;;;;;;14.40;8.60;;;;;;;19.04;43.05;97884.72;20931043;28;20413;-56
2024/01/11 07:53:12;;;;;;;14.40;8.70;;;;;;;19.11;42.96;97874.34;20903196;28;20045;-56
2024/01/11 08:03:34;;;;;;;11.70;8.35;;;;;;;19.20;42.65;97870.97;20901860;28;20140;-56
2024/01/11 08:13:54;;;;;;;13.40;8.45;;;;;;;19.36;42.51;97837.19;20929623;28;20056;-56
2024/01/11 08:24:14;;;;;;;12.60;8.15;;;;;;;19.46;42.26;97861.31;20902751;28;20110;-56
2024/01/11 08:34:34;;;;;;;10.63;7.82;;;;;;;19.57;42.16;97848.44;20903128;28;20504;-56
2024/01/11 08:44:53;;;;;;;12.15;8.48;;;;;;;19.60;41.97;97849.72;20901311;28;20049;-57
2024/01/11 08:55:12;;;;;;;13.93;8.40;;;;;;;19.66;41.83;97830.44;20925447;28;20033;-56
2024/01/11 09:05:32;;;;;;;11.50;7.68;;;;;;;19.74;41.66;97818.16;20818669;28;20414;-56
2024/01/11 09:15:52;;;;;;;11.32;7.65;;;;;;;19.87;41.66;97828.13;20745871;28;20478;-54
2024/01/11 09:26:12;;;;;;;10.07;7.88;;;;;;;20.00;41.14;97821.13;20805070;28;20045;-54
2024/01/11 09:36:33;;;;;;;9.38;7.20;;;;;;;20.07;41.28;97834.25;20831174;28;20080;-54
2024/01/11 09:46:53;;;;;;;13.68;7.25;;;;;;;20.17;41.05;97833.22;20831016;28;20045;-54
2024/01/11 09:57:15;;;;;;;12.80;7.45;;;;;;;20.24;41.06;97817.38;20832068;28;20068;-54
2024/01/11 10:07:36;;;;;;;12.70;7.55;;;;;;;20.31;40.89;97845.63;20911201;28;20049;-54
2024/01/11 10:17:56;;;;;;;10.20;7.45;;;;;;;20.31;40.92;97832.09;20896268;28;20053;-54
2024/01/11 10:28:16;;;;;;;11.60;7.88;;;;;;;20.38;40.89;97817.34;20936425;28;20095;-54
2024/01/11 10:38:38;;;;;;;9.30;7.93;;;;;;;20.37;40.96;97807.66;20909738;28;20055;-56
2024/01/11 10:48:59;;;;;;;9.93;7.57;;;;;;;20.37;41.01;97821.19;20907329;28;20119;-54
2024/01/11 10:59:20;;;;;;;10.95;7.53;;;;;;;20.33;41.19;97832.59;20892318;28;20115;-53
2024/01/11 11:09:43;;;;;;;10.82;7.63;;;;;;;20.32;41.38;97811.25;20933876;28;20044;-54
2024/01/11 11:20:05;;;;;;;10.85;7.70;;;;;;;20.32;41.45;97793.09;20907223;28;20056;-54
2024/01/11 11:30:25;;;;;;;11.98;7.13;;;;;;;20.31;41.68;97791.53;20905762;28;20484;-54
2024/01/11 11:40:46;;;;;;;9.13;6.97;;;;;;;20.32;41.70;97779.56;20904440;28;20053;-54
2024/01/11 11:51:10;;;;;;;9.35;6.57;;;;;;;20.28;41.76;97765.06;20903797;28;20123;-54
2024/01/11 12:01:31;;;;;;;10.23;6.85;;;;;;;20.21;41.88;97724.09;20902844;28;20060;-56
2024/01/11 12:11:50;;;;;;;7.65;5.90;;;;;;;20.15;41.83;97719.94;20903130;28;20060;-56
2024/01/11 12:22:10;;;;;;;9.82;6.72;;;;;;;20.13;41.89;97703.19;20902645;28;20049;-57
2024/01/11 12:32:30;;;;;;;8.80;6.45;;;;;;;20.09;42.06;97692.19;20901746;28;20052;-56
2024/01/11 12:42:49;;;;;;;7.28;6.05;;;;;;;20.09;41.76;97685.97;20901562;28;20099;-56
2024/01/11 12:53:18;;;;;;;8.05;6.13;;;;;;;20.04;42.01;97677.97;20916518;28;20045;-56
2024/01/11 13:03:39;;;;;;;6.82;5.85;;;;;;;20.00;42.06;97658.84;20918473;28;20054;-56
2024/01/11 13:14:01;;;;;;;8.13;6.00;;;;;;;19.98;42.17;97644.03;20917816;28;20409;-55
2024/01/11 13:24:20;;;;;;;7.93;5.90;;;;;;;19.96;42.18;97660.56;20915917;28;20048;-54
2024/01/11 13:34:41;;;;;;;6.47;5.50;;;;;;;19.87;42.26;97657.00;20913617;28;20045;-54
2024/01/11 13:45:02;;;;;;;6.63;5.88;;;;;;;19.81;42.31;97659.00;20912454;28;20128;-54
2024/01/11 13:55:22;;;;;;;7.60;5.45;;;;;;;19.79;42.39;97660.41;20913049;28;20061;-54
2024/01/11 14:05:41;;;;;;;8.38;6.28;;;;;;;19.69;42.47;97656.00;20930507;28;20041;-54
2024/01/11 14:16:00;;;;;;;8.25;6.10;;;;;;;19.66;42.48;97657.41;20912356;28;20052;-54
2024/01/11 14:26:20;;;;;;;6.35;5.40;;;;;;;19.61;42.63;97654.03;20909593;28;20099;-55
2024/01/11 14:36:39;;;;;;;7.28;5.35;;;;;;;19.55;42.81;97646.03;20936987;28;20040;-55
2024/01/11 14:46:59;;;;;;;6.50;5.47;;;;;;;19.51;42.68;97644.22;20908935;28;20049;-54
2024/01/11 14:57:20;;;;;;;7.30;5.93;;;;;;;19.45;42.85;97640.03;20893282;28;20107;-55
2024/01/11 15:07:40;;;;;;;6.95;5.63;;;;;;;19.43;42.85;97653.84;20911752;28;20048;-53
2024/01/11 15:17:59;;;;;;;6.78;5.55;;;;;;;19.32;43.06;97639.75;20906948;28;20053;-54
2024/01/11 15:28:18;;;;;;;6.85;5.40;;;;;;;19.30;43.05;97638.44;20905312;28;20052;-56
2024/01/11 15:38:38;;;;;;;6.40;5.60;;;;;;;19.27;42.92;97639.06;20905530;28;20485;-57
2024/01/11 15:48:57;;;;;;;6.13;5.53;;;;;;;19.27;42.89;97644.47;20904136;28;20052;-56
2024/01/11 15:59:16;;;;;;;6.15;5.53;;;;;;;19.34;42.82;97636.75;20903054;28;20498;-55
2024/01/11 16:09:36;;;;;;;6.50;5.43;;;;;;;19.35;42.50;97630.25;20903147;28;20504;-56
2024/01/11 16:19:56;;;;;;;7.32;5.47;;;;;;;19.41;42.47;97644.47;20901159;28;20107;-56
2024/01/11 16:30:16;;;;;;;9.55;6.85;;;;;;;19.42;41.41;97652.25;20898460;28;20049;-56
2024/01/11 16:40:35;;;;;;;14.55;9.55;;;;;;;19.63;50.17;97644.50;20926685;28;20053;-54
2024/01/11 16:50:55;;;;;;;9.82;7.45;;;;;;;19.70;46.42;97654.91;20922724;28;20482;-54
2024/01/11 17:01:15;;;;;;;10.50;7.80;;;;;;;19.74;45.05;97650.53;20900746;28;20057;-56
2024/01/11 17:11:40;;;;;;;9.40;7.57;;;;;;;19.85;44.54;97640.28;20886909;28;20045;-56
2024/01/11 17:22:01;;;;;;;11.68;9.32;;;;;;;19.83;42.33;97642.47;20907493;28;20103;-55
2024/01/11 17:32:21;;;;;;;10.25;9.00;;;;;;;19.81;42.26;97644.69;20937617;28;20033;-55
2024/01/11 17:42:40;;;;;;;12.55;9.10;;;;;;;19.88;41.86;97640.47;20946769;28;20481;-53
2024/01/11 17:53:02;;;;;;;9.70;8.48;;;;;;;19.99;41.92;97635.59;20954371;28;20060;-58
2024/01/11 18:03:22;;;;;;;11.30;8.32;;;;;;;20.00;42.22;97647.25;20936649;28;20092;-56
2024/01/11 18:13:41;;;;;;;12.88;7.57;;;;;;;20.07;42.18;97666.53;20925750;28;20485;-58
2024/01/11 18:24:01;;;;;;;9.90;7.50;;;;;;;20.12;42.46;97669.13;20917944;28;20056;-58
2024/01/11 18:34:20;;;;;;;8.55;7.03;;;;;;;20.19;42.61;97679.50;20925494;28;20127;-56
2024/01/11 18:44:40;;;;;;;7.70;6.72;;;;;;;20.23;42.53;97683.19;20949299;28;20452;-56
2024/01/11 18:55:00;;;;;;;8.10;6.80;;;;;;;20.22;42.64;97690.53;20886917;28;20056;-57
2024/01/11 19:05:19;;;;;;;8.57;6.63;;;;;;;20.20;42.48;97702.75;20923541;28;20055;-54
2024/01/11 19:15:39;;;;;;;8.75;7.47;;;;;;;20.21;43.04;97697.06;20927797;28;20041;-56
2024/01/11 19:25:58;;;;;;;9.23;6.72;;;;;;;20.16;43.34;97716.09;20907843;28;20107;-58
2024/01/11 19:36:18;;;;;;;8.60;6.07;;;;;;;20.07;43.39;97726.84;20921304;28;20080;-58
2024/01/11 19:46:38;;;;;;;6.82;6.13;;;;;;;20.03;43.76;97733.16;20896325;28;20048;-57
2024/01/11 19:56:57;;;;;;;7.78;6.47;;;;;;;20.08;43.18;97743.88;20901192;28;20076;-58
2024/01/11 20:07:17;;;;;;;7.35;6.50;;;;;;;20.05;42.75;97731.78;20934209;28;20068;-59
2024/01/11 20:17:37;;;;;;;8.20;6.32;;;;;;;20.01;43.04;97755.09;20921172;28;20045;-59
2024/01/11 20:27:57;;;;;;;8.10;6.93;;;;;;;19.90;43.32;97770.75;20942563;28;20100;-59
2024/01/11 20:38:16;;;;;;;6.97;6.05;;;;;;;19.89;43.42;97784.56;20917695;28;20095;-60
2024/01/11 20:48:38;;;;;;;7.35;6.20;;;;;;;19.82;43.27;97801.22;20900567;28;20053;-57
2024/01/11 20:58:58;;;;;;;7.68;6.10;;;;;;;19.78;43.21;97789.41;20950085;28;20448;-58
2024/01/11 21:09:17;;;;;;;8.15;5.82;;;;;;;19.72;43.26;97791.41;20932263;28;20041;-59
2024/01/11 21:19:36;;;;;;;7.03;5.88;;;;;;;19.71;43.72;97786.25;20941088;28;20056;-55
2024/01/11 21:29:56;;;;;;;7.38;5.63;;;;;;;19.62;44.30;97788.06;20944046;28;20535;-54
2024/01/11 21:40:18;;;;;;;10.00;6.20;;;;;;;19.58;44.35;97789.75;20934502;28;20405;-55
2024/01/11 21:50:38;;;;;;;7.78;5.85;;;;;;;19.51;44.68;97795.56;20913895;28;20490;-54
2024/01/11 22:00:58;;;;;;;6.45;5.85;;;;;;;19.49;44.70;97801.28;20920214;28;20057;-55
2024/01/11 22:11:18;;;;;;;7.80;5.63;;;;;;;19.46;44.89;97796.47;20909109;28;20049;-55
2024/01/11 22:21:41;;;;;;;7.75;5.68;;;;;;;19.51;44.31;97799.06;20953879;28;20556;-55
2024/01/11 22:32:01;;;;;;;7.03;5.22;;;;;;;19.46;44.41;97809.97;20926849;28;20075;-57
2024/01/11 22:42:21;;;;;;;7.70;5.32;;;;;;;19.44;44.30;97825.69;20907925;28;20045;-57
2024/01/11 22:52:40;;;;;;;6.03;5.18;;;;;;;19.41;44.07;97818.19;20908342;28;20052;-56
2024/01/11 23:03:00;;;;;;;5.93;4.72;;;;;;;19.35;44.10;97841.00;20906770;28;20399;-57
2024/01/11 23:13:19;;;;;;;5.30;4.80;;;;;;;19.34;43.92;97855.59;20891338;28;20084;-58
2024/01/11 23:23:38;;;;;;;6.15;5.28;;;;;;;19.28;43.98;97854.88;20932825;28;20048;-58
2024/01/11 23:33:57;;;;;;;6.18;5.20;;;;;;;19.25;44.02;97839.28;20906583;28;20049;-57
2024/01/11 23:44:17;;;;;;;6.55;4.90;;;;;;;19.21;43.95;97834.75;20904950;28;20441;-57
2024/01/11 23:54:36;;;;;;;5.38;4.72;;;;;;;19.14;43.88;97819.72;20913854;28;20482;-58
